createdAt,value
2024-04-09T00:00:44.324Z,999.90
2024-04-09T00:01:44.462Z,999.97
2024-04-09T00:02:44.242Z,999.98
2024-04-09T00:03:44.314Z,999.95
2024-04-09T00:04:44.266Z,999.94
2024-04-09T00:05:44.155Z,999.96
2024-04-09T00:06:44.215Z,999.87
2024-04-09T00:07:44.178Z,999.87
2024-04-09T00:08:44.120Z,999.84
2024-04-09T00:09:44.482Z,999.88
2024-04-09T00:10:44.120Z,999.88
2024-04-09T00:11:44.132Z,999.86
2024-04-09T00:12:44.162Z,999.90
2024-04-09T00:13:44.091Z,999.86
2024-04-09T00:14:44.060Z,999.92
2024-04-09T00:15:44.122Z,999.93
2024-04-09T00:16:44.042Z,999.92
2024-04-09T00:17:44.077Z,1000.01
2024-04-09T00:18:44.064Z,1000.06
2024-04-09T00:19:43.980Z,1000.14
2024-04-09T00:20:43.972Z,1000.25
2024-04-09T00:21:44.037Z,1000.37
2024-04-09T00:22:43.955Z,1000.54
2024-04-09T00:23:43.938Z,1000.68
2024-04-09T00:24:43.944Z,1000.58
2024-04-09T00:25:43.936Z,1000.62
2024-04-09T00:26:43.897Z,1000.63
2024-04-09T00:27:44.026Z,1000.62
2024-04-09T00:28:43.884Z,1000.59
2024-04-09T00:29:43.890Z,1000.56
2024-04-09T00:30:43.886Z,1000.45
2024-04-09T00:31:43.837Z,1000.43
2024-04-09T00:32:43.866Z,1000.46
2024-04-09T00:33:43.992Z,1000.42
2024-04-09T00:34:43.922Z,1000.44
2024-04-09T00:35:43.821Z,1000.46
2024-04-09T00:36:43.792Z,1000.52
2024-04-09T00:37:43.748Z,1000.60
2024-04-09T00:38:43.738Z,1000.54
2024-04-09T00:39:43.814Z,1000.68
2024-04-09T00:40:43.938Z,1000.74
2024-04-09T00:41:43.715Z,1000.82
2024-04-09T00:42:43.695Z,1000.74
2024-04-09T00:43:43.696Z,1000.84
2024-04-09T00:44:43.666Z,1000.91
2024-04-09T00:45:43.706Z,1000.99
2024-04-09T00:46:43.644Z,1001.02
2024-04-09T00:47:45.043Z,1001.02
2024-04-09T00:48:43.730Z,1001.07
2024-04-09T00:49:43.598Z,1001.15
2024-04-09T00:50:43.587Z,1001.09
2024-04-09T00:51:43.667Z,1001.22
2024-04-09T00:52:43.566Z,1001.21
2024-04-09T00:53:43.541Z,1001.15
2024-04-09T00:54:43.536Z,1001.20
2024-04-09T00:55:43.561Z,1001.15
2024-04-09T00:56:43.490Z,1001.08
2024-04-09T00:57:43.511Z,1001.13
2024-04-09T00:58:43.473Z,1001.11
2024-04-09T00:59:43.460Z,1001.17
2024-04-09T01:00:43.523Z,1001.20
2024-04-09T01:01:43.434Z,1001.18
2024-04-09T01:02:43.526Z,1001.09
2024-04-09T01:03:43.523Z,1001.14
2024-04-09T01:04:43.498Z,1001.14
2024-04-09T01:05:43.413Z,1001.15
2024-04-09T01:06:43.398Z,1001.23
2024-04-09T01:07:43.360Z,1001.19
2024-04-09T01:08:43.408Z,1001.30
2024-04-09T01:09:43.323Z,1001.24
2024-04-09T01:10:43.394Z,1001.32
2024-04-09T01:11:43.309Z,1001.31
2024-04-09T01:12:43.306Z,1001.34
2024-04-09T01:13:43.322Z,1001.30
2024-04-09T01:14:43.267Z,1001.32
2024-04-09T01:15:43.313Z,1001.33
2024-04-09T01:16:43.310Z,1001.33
2024-04-09T01:17:43.300Z,1001.34
2024-04-09T01:18:43.351Z,1001.32
2024-04-09T01:19:43.233Z,1001.31
2024-04-09T01:20:43.188Z,1001.30
2024-04-09T01:21:43.201Z,1001.32
2024-04-09T01:22:43.160Z,1001.43
2024-04-09T01:23:43.168Z,1001.39
2024-04-09T01:24:43.178Z,1001.42
2024-04-09T01:25:43.140Z,1001.45
2024-04-09T01:26:43.116Z,1001.48
2024-04-09T01:27:43.108Z,1001.44
2024-04-09T01:28:43.124Z,1001.41
2024-04-09T01:29:43.064Z,1001.37
2024-04-09T01:30:43.276Z,1001.38
2024-04-09T01:31:43.038Z,1001.39
2024-04-09T01:32:43.133Z,1001.41
2024-04-09T01:33:43.257Z,1001.37
2024-04-09T01:34:43.042Z,1001.35
2024-04-09T01:35:43.005Z,1001.37
2024-04-09T01:36:42.993Z,1001.37
2024-04-09T01:37:42.968Z,1001.47
2024-04-09T01:38:42.948Z,1001.40
2024-04-09T01:39:42.940Z,1001.44
2024-04-09T01:40:42.926Z,1001.49
2024-04-09T01:41:42.952Z,1001.50
2024-04-09T01:42:42.975Z,1001.49
2024-04-09T01:43:42.887Z,1001.45
2024-04-09T01:44:42.873Z,1001.39
2024-04-09T01:45:43.926Z,1001.46
2024-04-09T01:46:42.963Z,1001.59
2024-04-09T01:47:43.056Z,1001.54
2024-04-09T01:48:42.870Z,1001.54
2024-04-09T01:49:42.813Z,1001.51
2024-04-09T01:50:42.836Z,1001.48
2024-04-09T01:51:42.788Z,1001.57
2024-04-09T01:52:42.816Z,1001.51
2024-04-09T01:53:42.777Z,1001.46
2024-04-09T01:54:42.734Z,1001.52
2024-04-09T01:55:42.728Z,1001.49
2024-04-09T01:56:42.747Z,1001.55
2024-04-09T01:57:42.761Z,1001.58
2024-04-09T01:58:42.733Z,1001.61
2024-04-09T01:59:42.684Z,1001.64
2024-04-09T02:00:42.812Z,1001.59
2024-04-09T02:01:42.686Z,1001.58
2024-04-09T02:02:42.676Z,1001.57
2024-04-09T02:03:42.783Z,1001.53
2024-04-09T02:04:42.631Z,1001.62
2024-04-09T02:05:42.593Z,1001.54
2024-04-09T02:06:42.636Z,1001.56
2024-04-09T02:07:42.601Z,1001.53
2024-04-09T02:08:42.572Z,1001.59
2024-04-09T02:09:42.608Z,1001.57
2024-04-09T02:10:42.533Z,1001.52
2024-04-09T02:11:42.581Z,1001.61
2024-04-09T02:12:42.676Z,1001.56
2024-04-09T02:13:42.504Z,1001.55
2024-04-09T02:14:42.524Z,1001.60
2024-04-09T02:15:42.535Z,1001.60
2024-04-09T02:16:42.515Z,1001.58
2024-04-09T02:17:42.532Z,1001.57
2024-04-09T02:18:42.481Z,1001.73
2024-04-09T02:19:42.417Z,1001.72
2024-04-09T02:20:42.415Z,1001.78
2024-04-09T02:21:42.479Z,1001.83
2024-04-09T02:22:42.403Z,1001.77
2024-04-09T02:23:42.371Z,1001.81
2024-04-09T02:24:42.396Z,1001.80
2024-04-09T02:25:42.395Z,1001.88
2024-04-09T02:26:42.353Z,1001.94
2024-04-09T02:27:42.416Z,1001.93
2024-04-09T02:28:42.307Z,1002.01
2024-04-09T02:29:42.297Z,1001.97
2024-04-09T02:30:42.414Z,1002.08
2024-04-09T02:31:42.318Z,1002.08
2024-04-09T02:32:42.292Z,1002.07
2024-04-09T02:33:42.276Z,1002.06
2024-04-09T02:34:42.227Z,1002.07
2024-04-09T02:35:42.227Z,1002.16
2024-04-09T02:36:42.297Z,1002.14
2024-04-09T02:37:42.198Z,1002.14
2024-04-09T02:38:42.189Z,1002.12
2024-04-09T02:39:42.245Z,1002.11
2024-04-09T02:40:50.200Z,1002.15
2024-04-09T02:41:42.166Z,1002.09
2024-04-09T02:42:42.195Z,1002.08
2024-04-09T02:43:42.141Z,1002.07
2024-04-09T02:44:42.113Z,1002.13
2024-04-09T02:45:42.182Z,1002.11
2024-04-09T02:46:42.131Z,1002.18
2024-04-09T02:47:42.110Z,1002.20
2024-04-09T02:48:42.195Z,1002.22
2024-04-09T02:49:42.041Z,1002.24
2024-04-09T02:50:42.021Z,1002.24
2024-04-09T02:51:42.153Z,1002.28
2024-04-09T02:52:42.001Z,1002.28
2024-04-09T02:53:42.000Z,1002.32
2024-04-09T02:54:42.024Z,1002.30
2024-04-09T02:55:41.977Z,1002.37
2024-04-09T02:56:41.968Z,1002.34
2024-04-09T02:57:41.971Z,1002.42
2024-04-09T02:58:41.948Z,1002.41
2024-04-09T02:59:41.925Z,1002.46
2024-04-09T03:00:41.984Z,1002.50
2024-04-09T03:01:41.876Z,1002.54
2024-04-09T03:02:41.958Z,1002.58
2024-04-09T03:03:41.979Z,1002.57
2024-04-09T03:04:41.921Z,1002.62
2024-04-09T03:05:41.844Z,1002.67
2024-04-09T03:06:42.010Z,1002.61
2024-04-09T03:07:41.844Z,1002.71
2024-04-09T03:08:41.823Z,1002.78
2024-04-09T03:09:41.871Z,1002.79
2024-04-09T03:10:41.778Z,1002.88
2024-04-09T03:11:41.762Z,1002.85
2024-04-09T03:12:41.868Z,1002.89
2024-04-09T03:13:41.791Z,1002.91
2024-04-09T03:14:41.726Z,1002.95
2024-04-09T03:15:41.805Z,1002.98
2024-04-09T03:16:41.831Z,1003.06
2024-04-09T03:17:41.734Z,1003.08
2024-04-09T03:18:41.730Z,1003.11
2024-04-09T03:19:41.673Z,1003.09
2024-04-09T03:20:41.640Z,1003.14
2024-04-09T03:21:41.685Z,1003.16
2024-04-09T03:22:41.620Z,1003.19
2024-04-09T03:23:41.632Z,1003.23
2024-04-09T03:24:41.680Z,1003.31
2024-04-09T03:25:41.567Z,1003.31
2024-04-09T03:26:41.564Z,1003.40
2024-04-09T03:27:41.646Z,1003.41
2024-04-09T03:28:41.548Z,1003.35
2024-04-09T03:29:41.541Z,1003.33
2024-04-09T03:30:41.631Z,1003.31
2024-04-09T03:31:41.524Z,1003.28
2024-04-09T03:32:41.599Z,1003.28
2024-04-09T03:33:41.662Z,1003.29
2024-04-09T03:34:41.485Z,1003.38
2024-04-09T03:35:41.485Z,1003.44
2024-04-09T03:36:41.563Z,1003.48
2024-04-09T03:37:41.414Z,1003.47
2024-04-09T03:38:41.407Z,1003.51
2024-04-09T03:39:41.486Z,1003.49
2024-04-09T03:40:41.405Z,1003.46
2024-04-09T03:41:41.375Z,1003.39
2024-04-09T03:42:41.369Z,1003.34
2024-04-09T03:43:41.348Z,1003.31
2024-04-09T03:44:41.340Z,1003.14
2024-04-09T03:45:41.361Z,1003.13
2024-04-09T03:46:41.328Z,1003.03
2024-04-09T03:47:41.384Z,1003.00
2024-04-09T03:48:41.463Z,1003.01
2024-04-09T03:49:41.382Z,1002.98
2024-04-09T03:50:41.246Z,1002.90
2024-04-09T03:51:41.357Z,1002.79
2024-04-09T03:52:41.225Z,1002.74
2024-04-09T03:53:41.228Z,1002.68
2024-04-09T03:54:41.293Z,1002.63
2024-04-09T03:55:41.243Z,1002.69
2024-04-09T03:56:41.183Z,1002.73
2024-04-09T03:57:41.204Z,1002.58
2024-04-09T03:58:41.184Z,1002.58
2024-04-09T03:59:41.148Z,1002.65
2024-04-09T04:00:41.373Z,1002.78
2024-04-09T04:01:41.176Z,1002.80
2024-04-09T04:02:41.323Z,1002.74
2024-04-09T04:03:41.263Z,1002.51
2024-04-09T04:04:41.135Z,1002.55
2024-04-09T04:05:41.054Z,1002.72
2024-04-09T04:06:41.146Z,1002.57
2024-04-09T04:07:41.039Z,1002.38
2024-04-09T04:08:41.031Z,1002.41
2024-04-09T04:09:41.079Z,1002.53
2024-04-09T04:10:40.991Z,1002.64
2024-04-09T04:11:41.011Z,1002.58
2024-04-09T04:12:41.030Z,1002.63
2024-04-09T04:13:40.976Z,1002.71
2024-04-09T04:14:40.944Z,1002.67
2024-04-09T04:15:43.073Z,1002.76
2024-04-09T04:16:41.002Z,1002.80
2024-04-09T04:17:40.999Z,1002.73
2024-04-09T04:18:41.073Z,1002.92
2024-04-09T04:19:40.885Z,1002.87
2024-04-09T04:20:40.874Z,1002.90
2024-04-09T04:21:40.892Z,1003.07
2024-04-09T04:22:40.875Z,1002.85
2024-04-09T04:23:40.850Z,1002.63
2024-04-09T04:24:40.968Z,1002.71
2024-04-09T04:25:40.802Z,1003.04
2024-04-09T04:26:40.806Z,1003.05
2024-04-09T04:27:40.845Z,1003.06
2024-04-09T04:28:40.762Z,1003.36
2024-04-09T04:29:43.471Z,1003.50
2024-04-09T04:30:40.956Z,1003.60
2024-04-09T04:31:40.731Z,1003.65
2024-04-09T04:32:40.772Z,1003.80
2024-04-09T04:33:40.914Z,1003.78
2024-04-09T04:34:40.793Z,1003.81
2024-04-09T04:35:40.680Z,1003.85
2024-04-09T04:36:40.793Z,1003.84
2024-04-09T04:37:40.665Z,1003.85
2024-04-09T04:38:40.656Z,1003.94
2024-04-09T04:39:40.734Z,1003.97
2024-04-09T04:40:40.621Z,1003.98
2024-04-09T04:41:40.604Z,1003.97
2024-04-09T04:42:40.666Z,1004.01
2024-04-09T04:43:40.647Z,1004.00
2024-04-09T04:44:40.573Z,1004.00
2024-04-09T04:45:40.670Z,1004.03
2024-04-09T04:46:40.545Z,1004.02
2024-04-09T04:47:40.600Z,1004.04
2024-04-09T04:48:41.298Z,1004.00
2024-04-09T04:49:40.669Z,1004.04
2024-04-09T04:50:40.523Z,1004.06
2024-04-09T04:51:40.651Z,1004.07
2024-04-09T04:52:40.489Z,1004.00
2024-04-09T04:53:40.456Z,1004.10
2024-04-09T04:54:40.736Z,1004.14
2024-04-09T04:55:40.484Z,1004.13
2024-04-09T04:56:40.497Z,1004.16
2024-04-09T04:57:40.654Z,1004.26
2024-04-09T04:58:40.398Z,1004.24
2024-04-09T04:59:40.383Z,1004.22
2024-04-09T05:00:40.543Z,1004.24
2024-04-09T05:01:40.410Z,1004.17
2024-04-09T05:02:40.472Z,1004.15
2024-04-09T05:03:40.441Z,1004.18
2024-04-09T05:04:40.444Z,1004.19
2024-04-09T05:05:40.339Z,1004.18
2024-04-09T05:06:40.415Z,1004.18
2024-04-09T05:07:40.298Z,1004.28
2024-04-09T05:08:40.251Z,1004.29
2024-04-09T05:09:40.348Z,1004.30
2024-04-09T05:10:40.309Z,1004.38
2024-04-09T05:11:40.310Z,1004.36
2024-04-09T05:12:40.245Z,1004.30
2024-04-09T05:13:40.237Z,1004.42
2024-04-09T05:14:40.196Z,1004.41
2024-04-09T05:15:40.251Z,1004.46
2024-04-09T05:16:40.150Z,1004.32
2024-04-09T05:17:40.233Z,1004.38
2024-04-09T05:18:40.276Z,1004.34
2024-04-09T05:19:40.153Z,1004.23
2024-04-09T05:20:40.139Z,1004.17
2024-04-09T05:21:40.234Z,1004.21
2024-04-09T05:22:40.072Z,1004.19
2024-04-09T05:23:40.084Z,1004.18
2024-04-09T05:24:40.082Z,1004.19
2024-04-09T05:25:40.252Z,1004.15
2024-04-09T05:26:40.039Z,1004.15
2024-04-09T05:27:40.143Z,1004.16
2024-04-09T05:28:40.034Z,1004.15
2024-04-09T05:29:40.013Z,1004.25
2024-04-09T05:30:40.070Z,1004.17
2024-04-09T05:31:40.578Z,1004.15
2024-04-09T05:32:40.002Z,1004.16
2024-04-09T05:33:40.113Z,1004.17
2024-04-09T05:34:39.941Z,1004.27
2024-04-09T05:35:39.916Z,1004.41
2024-04-09T05:36:40.011Z,1004.38
2024-04-09T05:37:39.904Z,1004.42
2024-04-09T05:38:39.919Z,1004.38
2024-04-09T05:39:39.925Z,1004.34
2024-04-09T05:40:39.867Z,1004.31
2024-04-09T05:41:39.831Z,1004.28
2024-04-09T05:42:39.913Z,1004.25
2024-04-09T05:43:39.806Z,1004.21
2024-04-09T05:44:39.819Z,1004.18
2024-04-09T05:45:39.833Z,1004.16
2024-04-09T05:46:39.760Z,1004.18
2024-04-09T05:47:39.873Z,1004.17
2024-04-09T05:48:40.107Z,1004.21
2024-04-09T05:49:39.798Z,1004.29
2024-04-09T05:50:39.728Z,1004.37
2024-04-09T05:51:39.908Z,1004.38
2024-04-09T05:52:39.699Z,1004.47
2024-04-09T05:53:39.681Z,1004.55
2024-04-09T05:54:39.782Z,1004.60
2024-04-09T05:55:39.653Z,1004.60
2024-04-09T05:56:39.664Z,1004.60
2024-04-09T05:57:40.193Z,1004.58
2024-04-09T05:58:39.611Z,1004.65
2024-04-09T05:59:39.706Z,1004.70
2024-04-09T06:00:39.723Z,1004.77
2024-04-09T06:01:39.726Z,1004.78
2024-04-09T06:02:39.648Z,1004.75
2024-04-09T06:03:39.628Z,1004.77
2024-04-09T06:04:39.727Z,1004.79
2024-04-09T06:05:39.533Z,1004.85
2024-04-09T06:06:39.535Z,1004.85
2024-04-09T06:07:39.578Z,1004.81
2024-04-09T06:08:39.502Z,1004.88
2024-04-09T06:09:39.560Z,1004.89
2024-04-09T06:10:39.486Z,1004.89
2024-04-09T06:11:39.538Z,1004.93
2024-04-09T06:12:39.586Z,1004.96
2024-04-09T06:13:39.539Z,1005.14
2024-04-09T06:14:39.407Z,1005.05
2024-04-09T06:15:39.451Z,1004.99
2024-04-09T06:16:39.383Z,1004.94
2024-04-09T06:17:39.579Z,1004.96
2024-04-09T06:18:39.525Z,1004.89
2024-04-09T06:19:39.494Z,1004.88
2024-04-09T06:20:39.334Z,1004.83
2024-04-09T06:21:39.438Z,1004.85
2024-04-09T06:22:39.381Z,1004.78
2024-04-09T06:23:39.288Z,1004.81
2024-04-09T06:24:39.302Z,1004.85
2024-04-09T06:25:39.299Z,1004.90
2024-04-09T06:26:39.301Z,1004.91
2024-04-09T06:27:40.119Z,1005.01
2024-04-09T06:28:39.241Z,1005.09
2024-04-09T06:29:39.208Z,1005.15
2024-04-09T06:30:39.286Z,1005.23
2024-04-09T06:31:39.261Z,1005.26
2024-04-09T06:32:39.346Z,1005.37
2024-04-09T06:33:39.221Z,1005.36
2024-04-09T06:34:39.186Z,1005.39
2024-04-09T06:35:39.169Z,1005.38
2024-04-09T06:36:39.224Z,1005.48
2024-04-09T06:37:39.117Z,1005.45
2024-04-09T06:38:39.099Z,1005.38
2024-04-09T06:39:39.250Z,1005.28
2024-04-09T06:40:39.739Z,1005.38
2024-04-09T06:41:39.070Z,1005.35
2024-04-09T06:42:39.178Z,1005.25
2024-04-09T06:43:39.091Z,1005.29
2024-04-09T06:44:39.022Z,1005.26
2024-04-09T06:45:39.083Z,1005.19
2024-04-09T06:46:39.008Z,1005.27
2024-04-09T06:47:39.065Z,1005.33
2024-04-09T06:48:39.363Z,1005.34
2024-04-09T06:49:39.041Z,1005.35
2024-04-09T06:50:38.969Z,1005.37
2024-04-09T06:51:38.991Z,1005.52
2024-04-09T06:52:38.915Z,1005.55
2024-04-09T06:53:38.905Z,1005.52
2024-04-09T06:54:38.891Z,1005.56
2024-04-09T06:55:38.883Z,1005.58
2024-04-09T06:56:38.882Z,1005.53
2024-04-09T06:57:38.893Z,1005.62
2024-04-09T06:58:38.854Z,1005.63
2024-04-09T06:59:38.834Z,1005.66
2024-04-09T07:00:38.883Z,1005.70
2024-04-09T07:01:38.968Z,1005.66
2024-04-09T07:02:38.879Z,1005.78
2024-04-09T07:03:39.102Z,1005.69
2024-04-09T07:04:39.828Z,1005.59
2024-04-09T07:05:38.739Z,1005.57
2024-04-09T07:06:38.832Z,1005.63
2024-04-09T07:07:38.714Z,1005.68
2024-04-09T07:08:38.711Z,1005.82
2024-04-09T07:09:38.780Z,1005.91
2024-04-09T07:10:38.685Z,1006.01
2024-04-09T07:11:38.809Z,1006.08
2024-04-09T07:12:38.705Z,1006.15
2024-04-09T07:13:41.254Z,1006.20
2024-04-09T07:14:38.625Z,1006.26
2024-04-09T07:15:38.776Z,1006.30
2024-04-09T07:16:38.654Z,1006.31
2024-04-09T07:17:38.689Z,1006.21
2024-04-09T07:18:39.606Z,1006.18
2024-04-09T07:19:38.563Z,1006.15
2024-04-09T07:20:38.554Z,1006.18
2024-04-09T07:21:38.705Z,1006.28
2024-04-09T07:22:38.555Z,1006.32
2024-04-09T07:23:38.533Z,1006.44
2024-04-09T07:24:38.594Z,1006.52
2024-04-09T07:25:38.481Z,1006.52
2024-04-09T07:26:38.513Z,1006.62
2024-04-09T07:27:38.516Z,1006.63
2024-04-09T07:28:38.455Z,1006.55
2024-04-09T07:29:38.447Z,1006.61
2024-04-09T07:30:38.680Z,1006.58
2024-04-09T07:31:38.682Z,1006.61
2024-04-09T07:32:38.428Z,1006.64
2024-04-09T07:33:38.512Z,1006.66
2024-04-09T07:34:38.404Z,1006.79
2024-04-09T07:35:38.397Z,1006.88
2024-04-09T07:36:38.549Z,1006.87
2024-04-09T07:37:38.331Z,1006.95
2024-04-09T07:38:38.316Z,1006.92
2024-04-09T07:39:38.486Z,1006.92
2024-04-09T07:40:38.431Z,1006.86
2024-04-09T07:41:38.278Z,1006.83
2024-04-09T07:42:38.346Z,1006.84
2024-04-09T07:43:40.429Z,1006.82
2024-04-09T07:44:38.244Z,1006.82
2024-04-09T07:45:38.365Z,1006.83
2024-04-09T07:46:38.255Z,1006.87
2024-04-09T07:47:38.321Z,1006.88
2024-04-09T07:48:38.297Z,1006.77
2024-04-09T07:49:38.251Z,1006.79
2024-04-09T07:50:38.876Z,1006.71
2024-04-09T07:51:38.214Z,1006.70
2024-04-09T07:52:38.145Z,1006.60
2024-04-09T07:53:38.117Z,1006.66
2024-04-09T07:54:38.254Z,1006.66
2024-04-09T07:55:38.170Z,1006.64
2024-04-09T07:56:38.219Z,1006.62
2024-04-09T07:57:38.317Z,1006.72
2024-04-09T07:58:38.084Z,1006.72
2024-04-09T07:59:38.079Z,1006.83
2024-04-09T08:00:38.188Z,1006.81
2024-04-09T08:01:38.094Z,1006.77
2024-04-09T08:02:38.068Z,1006.70
2024-04-09T08:03:38.174Z,1006.69
2024-04-09T08:04:38.140Z,1006.69
2024-04-09T08:05:38.106Z,1006.69
2024-04-09T08:06:38.125Z,1006.81
2024-04-09T08:07:38.190Z,1006.88
2024-04-09T08:08:40.422Z,1006.84
2024-04-09T08:09:38.032Z,1006.96
2024-04-09T08:10:37.938Z,1006.95
2024-04-09T08:11:38.075Z,1006.89
2024-04-09T08:12:38.033Z,1006.82
2024-04-09T08:13:37.902Z,1006.93
2024-04-09T08:14:37.869Z,1006.85
2024-04-09T08:15:37.924Z,1006.96
2024-04-09T08:16:37.876Z,1007.03
2024-04-09T08:17:37.968Z,1007.07
2024-04-09T08:18:37.925Z,1007.16
2024-04-09T08:19:38.143Z,1007.21
2024-04-09T08:20:37.896Z,1007.30
2024-04-09T08:21:37.948Z,1007.33
2024-04-09T08:22:37.798Z,1007.33
2024-04-09T08:23:38.472Z,1007.29
2024-04-09T08:24:37.766Z,1007.22
2024-04-09T08:25:37.709Z,1007.14
2024-04-09T08:26:37.697Z,1007.10
2024-04-09T08:27:37.820Z,1007.04
2024-04-09T08:28:37.678Z,1007.00
2024-04-09T08:29:37.710Z,1006.90
2024-04-09T08:30:37.742Z,1006.98
2024-04-09T08:31:37.632Z,1007.10
2024-04-09T08:32:37.749Z,1007.25
2024-04-09T08:33:37.692Z,1007.36
2024-04-09T08:34:37.788Z,1007.39
2024-04-09T08:35:37.585Z,1007.52
2024-04-09T08:36:37.825Z,1007.55
2024-04-09T08:37:37.656Z,1007.62
2024-04-09T08:38:37.602Z,1007.66
2024-04-09T08:39:37.611Z,1007.69
2024-04-09T08:40:37.530Z,1007.87
2024-04-09T08:41:37.561Z,1007.92
2024-04-09T08:42:37.594Z,1007.87
2024-04-09T08:43:37.601Z,1007.87
2024-04-09T08:44:37.534Z,1007.87
2024-04-09T08:45:37.683Z,1007.86
2024-04-09T08:46:37.481Z,1007.84
2024-04-09T08:47:37.504Z,1007.90
2024-04-09T08:48:37.908Z,1007.95
2024-04-09T08:49:37.722Z,1007.96
2024-04-09T08:50:37.705Z,1007.94
2024-04-09T08:51:37.570Z,1007.91
2024-04-09T08:52:38.106Z,1007.97
2024-04-09T08:53:37.862Z,1007.96
2024-04-09T08:54:37.441Z,1008.02
2024-04-09T08:55:37.351Z,1007.99
2024-04-09T08:56:37.338Z,1008.07
2024-04-09T08:57:37.412Z,1008.11
2024-04-09T08:58:37.314Z,1008.17
2024-04-09T08:59:37.328Z,1008.11
2024-04-09T09:00:37.428Z,1008.19
2024-04-09T09:01:37.470Z,1008.17
2024-04-09T09:02:37.315Z,1008.14
2024-04-09T09:03:37.530Z,1008.11
2024-04-09T09:04:37.262Z,1008.14
2024-04-09T09:05:37.898Z,1008.19
2024-04-09T09:06:37.246Z,1008.14
2024-04-09T09:07:37.202Z,1008.20
2024-04-09T09:08:37.186Z,1008.20
2024-04-09T09:09:37.268Z,1008.21
2024-04-09T09:10:37.150Z,1008.17
2024-04-09T09:11:37.123Z,1008.32
2024-04-09T09:12:37.232Z,1008.29
2024-04-09T09:13:37.166Z,1008.33
2024-04-09T09:14:37.171Z,1008.31
2024-04-09T09:15:37.430Z,1008.32
2024-04-09T09:16:37.141Z,1008.35
2024-04-09T09:17:37.152Z,1008.30
2024-04-09T09:18:37.171Z,1008.26
2024-04-09T09:19:37.034Z,1008.32
2024-04-09T09:20:37.073Z,1008.47
2024-04-09T09:21:37.132Z,1008.62
2024-04-09T09:22:37.225Z,1008.78
2024-04-09T09:23:37.235Z,1008.88
2024-04-09T09:24:37.100Z,1008.88
2024-04-09T09:25:36.955Z,1008.74
2024-04-09T09:26:36.980Z,1008.76
2024-04-09T09:27:37.169Z,1008.73
2024-04-09T09:28:36.972Z,1008.69
2024-04-09T09:29:36.940Z,1008.60
2024-04-09T09:30:36.955Z,1008.63
2024-04-09T09:31:37.068Z,1008.55
2024-04-09T09:32:36.955Z,1008.59
2024-04-09T09:33:36.893Z,1008.55
2024-04-09T09:34:36.968Z,1008.56
2024-04-09T09:35:36.905Z,1008.56
2024-04-09T09:36:36.904Z,1008.48
2024-04-09T09:37:36.878Z,1008.48
2024-04-09T09:38:37.607Z,1008.43
2024-04-09T09:39:36.801Z,1008.47
2024-04-09T09:40:36.762Z,1008.55
2024-04-09T09:41:36.800Z,1008.56
2024-04-09T09:42:36.833Z,1008.66
2024-04-09T09:43:36.742Z,1008.62
2024-04-09T09:44:36.737Z,1008.58
2024-04-09T09:45:37.704Z,1008.47
2024-04-09T09:46:36.708Z,1008.42
2024-04-09T09:47:36.921Z,1008.31
2024-04-09T09:48:36.825Z,1008.34
2024-04-09T09:49:36.894Z,1008.32
2024-04-09T09:50:36.694Z,1008.32
2024-04-09T09:51:36.771Z,1008.38
2024-04-09T09:52:36.616Z,1008.39
2024-04-09T09:53:36.891Z,1008.39
2024-04-09T09:54:37.047Z,1008.39
2024-04-09T09:55:36.903Z,1008.52
2024-04-09T09:56:36.574Z,1008.52
2024-04-09T09:57:36.783Z,1008.51
2024-04-09T09:58:36.625Z,1008.46
2024-04-09T09:59:36.519Z,1008.50
2024-04-09T10:00:36.619Z,1008.44
2024-04-09T10:01:36.548Z,1008.34
2024-04-09T10:02:37.158Z,1008.35
2024-04-09T10:03:36.889Z,1008.30
2024-04-09T10:04:36.594Z,1008.33
2024-04-09T10:05:36.556Z,1008.23
2024-04-09T10:06:36.462Z,1008.22
2024-04-09T10:07:36.403Z,1008.24
2024-04-09T10:08:36.405Z,1008.25
2024-04-09T10:09:36.408Z,1008.30
2024-04-09T10:10:36.410Z,1008.29
2024-04-09T10:11:36.419Z,1008.39
2024-04-09T10:12:36.406Z,1008.48
2024-04-09T10:13:36.333Z,1008.53
2024-04-09T10:14:36.353Z,1008.48
2024-04-09T10:15:36.474Z,1008.57
2024-04-09T10:16:36.289Z,1008.61
2024-04-09T10:17:36.409Z,1008.61
2024-04-09T10:18:36.568Z,1008.61
2024-04-09T10:19:36.336Z,1008.73
2024-04-09T10:20:36.247Z,1008.72
2024-04-09T10:21:36.422Z,1008.72
2024-04-09T10:22:36.201Z,1008.72
2024-04-09T10:23:36.245Z,1008.72
2024-04-09T10:24:36.320Z,1008.78
2024-04-09T10:25:36.179Z,1008.78
2024-04-09T10:26:36.183Z,1008.83
2024-04-09T10:27:36.234Z,1008.78
2024-04-09T10:28:36.149Z,1008.83
2024-04-09T10:29:36.141Z,1008.76
2024-04-09T10:30:36.190Z,1008.84
2024-04-09T10:31:36.145Z,1008.79
2024-04-09T10:32:36.163Z,1008.73
2024-04-09T10:33:36.484Z,1008.75
2024-04-09T10:34:36.255Z,1008.75
2024-04-09T10:35:36.094Z,1008.80
2024-04-09T10:36:36.274Z,1008.80
2024-04-09T10:37:36.124Z,1008.80
2024-04-09T10:38:36.001Z,1008.84
2024-04-09T10:39:36.554Z,1008.85
2024-04-09T10:40:35.994Z,1008.88
2024-04-09T10:41:35.995Z,1008.94
2024-04-09T10:42:36.180Z,1009.04
2024-04-09T10:43:35.978Z,1009.07
2024-04-09T10:44:35.951Z,1009.01
2024-04-09T10:45:44.507Z,1009.08
2024-04-09T10:46:36.922Z,1009.18
2024-04-09T10:47:36.022Z,1009.05
2024-04-09T10:48:35.983Z,1009.11
2024-04-09T10:49:35.880Z,1009.11
2024-04-09T10:50:35.874Z,1009.17
2024-04-09T10:51:35.977Z,1009.15
2024-04-09T10:52:35.853Z,1009.23
2024-04-09T10:53:35.817Z,1009.25
2024-04-09T10:54:35.957Z,1009.26
2024-04-09T10:55:35.795Z,1009.36
2024-04-09T10:56:35.773Z,1009.36
2024-04-09T10:57:35.883Z,1009.42
2024-04-09T10:58:35.766Z,1009.39
2024-04-09T10:59:35.756Z,1009.37
2024-04-09T11:00:35.760Z,1009.34
2024-04-09T11:01:35.795Z,1009.34
2024-04-09T11:02:35.709Z,1009.38
2024-04-09T11:03:36.307Z,1009.38
2024-04-09T11:04:35.770Z,1009.37
2024-04-09T11:05:35.695Z,1009.47
2024-04-09T11:06:35.717Z,1009.39
2024-04-09T11:07:35.636Z,1009.39
2024-04-09T11:08:35.734Z,1009.39
2024-04-09T11:09:35.697Z,1009.48
2024-04-09T11:10:35.591Z,1009.51
2024-04-09T11:11:35.667Z,1009.58
2024-04-09T11:12:35.634Z,1009.52
2024-04-09T11:13:35.559Z,1009.55
2024-04-09T11:14:35.557Z,1009.60
2024-04-09T11:15:35.572Z,1009.58
2024-04-09T11:16:35.535Z,1009.56
2024-04-09T11:17:35.660Z,1009.64
2024-04-09T11:18:36.008Z,1009.60
2024-04-09T11:19:35.691Z,1009.66
2024-04-09T11:20:35.524Z,1009.60
2024-04-09T11:21:35.627Z,1009.67
2024-04-09T11:22:35.449Z,1009.59
2024-04-09T11:23:35.485Z,1009.55
2024-04-09T11:24:35.518Z,1009.60
2024-04-09T11:25:35.429Z,1009.59
2024-04-09T11:26:35.389Z,1009.59
2024-04-09T11:27:35.544Z,1009.50
2024-04-09T11:28:35.400Z,1009.59
2024-04-09T11:29:35.376Z,1009.60
2024-04-09T11:30:35.370Z,1009.66
2024-04-09T11:31:35.368Z,1009.63
2024-04-09T11:32:35.376Z,1009.62
2024-04-09T11:33:35.614Z,1009.58
2024-04-09T11:34:35.626Z,1009.55
2024-04-09T11:35:35.301Z,1009.57
2024-04-09T11:36:35.533Z,1009.60
2024-04-09T11:37:35.297Z,1009.58
2024-04-09T11:38:35.295Z,1009.47
2024-04-09T11:39:35.440Z,1009.48
2024-04-09T11:40:35.285Z,1009.61
2024-04-09T11:41:35.319Z,1009.55
2024-04-09T11:42:35.388Z,1009.59
2024-04-09T11:43:35.192Z,1009.55
2024-04-09T11:44:35.157Z,1009.62
2024-04-09T11:45:35.187Z,1009.71
2024-04-09T11:46:35.134Z,1009.52
2024-04-09T11:47:35.199Z,1009.52
2024-04-09T11:48:35.271Z,1009.50
2024-04-09T11:49:35.170Z,1009.46
2024-04-09T11:50:35.082Z,1009.49
2024-04-09T11:51:35.138Z,1009.48
2024-04-09T11:52:35.048Z,1009.40
2024-04-09T11:53:35.054Z,1009.42
2024-04-09T11:54:35.175Z,1009.48
2024-04-09T11:55:35.069Z,1009.62
2024-04-09T11:56:34.999Z,1009.71
2024-04-09T11:57:35.054Z,1009.60
2024-04-09T11:58:34.993Z,1009.53
2024-04-09T11:59:34.983Z,1009.48
2024-04-09T12:00:35.080Z,1009.53
2024-04-09T12:01:35.067Z,1009.50
2024-04-09T12:02:34.964Z,1009.48
2024-04-09T12:03:35.080Z,1009.51
2024-04-09T12:04:35.067Z,1009.55
2024-04-09T12:05:34.994Z,1009.44
2024-04-09T12:06:34.918Z,1009.55